Time;durP1;ratioP1;P1;durP2;ratioP2;P2;SDS_P1;SDS_P2;PMS_P1;PMS_P2;Temp;Humidity;BMP_temperature;BMP_pressure;BME280_temperature;BME280_humidity;BME280_pressure;Samples;Min_cycle;Max_cycle;Signal;HPM_P1;HPM_P2
2021/05/08 00:02:26;;;;;;;7.53;2.60;;;;;;;15.38;100.00;94278.00;10355857;28;20288;-80
2021/05/08 00:07:27;;;;;;;6.47;2.38;;;;;;;14.95;100.00;94281.34;10372835;28;20032;-79
2021/05/08 00:12:27;;;;;;;5.27;2.33;;;;;;;14.78;100.00;94280.16;10372697;28;20184;-79
2021/05/08 00:17:28;;;;;;;7.13;2.73;;;;;;;14.50;100.00;94285.69;10372679;28;20265;-79
2021/05/08 00:22:28;;;;;;;9.27;3.83;;;;;;;14.51;100.00;94279.19;10372083;28;20311;-79
2021/05/08 00:27:28;;;;;;;8.50;3.10;;;;;;;14.51;100.00;94281.88;10372072;28;20034;-79
2021/05/08 00:32:29;;;;;;;12.83;3.03;;;;;;;14.66;100.00;94299.66;10371963;28;20440;-79
2021/05/08 00:37:29;;;;;;;22.37;3.67;;;;;;;14.80;100.00;94323.13;10371644;28;20276;-79
2021/05/08 00:42:29;;;;;;;4.30;2.67;;;;;;;14.74;100.00;94337.91;10374244;28;20033;-78
2021/05/08 00:47:30;;;;;;;4.25;2.35;;;;;;;14.79;100.00;94337.75;10412399;28;20272;-79
2021/05/08 00:52:30;;;;;;;6.35;2.90;;;;;;;14.61;100.00;94351.16;10394260;28;20029;-79
2021/05/08 00:57:31;;;;;;;11.15;3.85;;;;;;;14.44;100.00;94361.81;10411821;28;20041;-79
2021/05/08 01:02:32;;;;;;;14.83;3.70;;;;;;;13.91;100.00;94384.88;10411493;28;20413;-79
2021/05/08 01:07:39;;;;;;;11.00;6.47;;;;;;;13.90;100.00;94410.28;10411780;28;20854;-79
2021/05/08 01:12:39;;;;;;;19.55;9.43;;;;;;;13.68;100.00;94433.44;10411065;28;20818;-79
2021/05/08 01:17:40;;;;;;;21.60;10.40;;;;;;;13.43;100.00;94446.31;10410787;28;20029;-79
2021/05/08 01:22:41;;;;;;;23.30;13.30;;;;;;;12.82;100.00;94467.81;10411258;28;20727;-79
2021/05/08 01:27:49;;;;;;;26.42;14.18;;;;;;;12.56;100.00;94474.66;10400775;28;20089;-78
2021/05/08 01:32:50;;;;;;;;;;;;;;;12.27;100.00;94479.09;10369763;28;20033;-78
2021/05/08 01:37:50;;;;;;;21.97;15.70;;;;;;;11.95;100.00;94482.47;10370098;28;20693;-79
2021/05/08 01:42:52;;;;;;;27.63;14.73;;;;;;;11.97;100.00;94480.28;10368848;28;20389;-79
2021/05/08 01:47:53;;;;;;;21.52;15.15;;;;;;;11.84;100.00;94486.34;10351184;28;20111;-79
2021/05/08 01:52:54;;;;;;;27.42;15.93;;;;;;;11.61;100.00;94500.31;10368740;28;20033;-79
2021/05/08 01:57:57;;;;;;;17.85;13.02;;;;;;;11.48;100.00;94511.75;10368339;28;20040;-79
2021/05/08 02:02:58;;;;;;;23.80;14.75;;;;;;;11.13;100.00;94527.13;10368774;28;20040;-79
2021/05/08 02:08:01;;;;;;;21.25;13.50;;;;;;;11.03;100.00;94524.53;10368781;28;20061;-79
2021/05/08 02:13:04;;;;;;;25.70;15.18;;;;;;;11.15;100.00;94524.97;10368198;28;20029;-79
2021/05/08 02:18:05;;;;;;;17.10;10.50;;;;;;;11.00;100.00;94527.78;10381685;28;20030;-79
2021/05/08 02:23:09;;;;;;;20.75;10.13;;;;;;;11.01;100.00;94540.94;10367582;28;20026;-80
2021/05/08 02:28:11;;;;;;;15.65;9.63;;;;;;;10.86;100.00;94549.13;10381527;28;20087;-79
2021/05/08 02:33:11;;;;;;;13.52;8.50;;;;;;;10.76;100.00;94547.31;10408340;28;20028;-79
2021/05/08 02:38:11;;;;;;;10.63;6.90;;;;;;;10.87;100.00;94553.38;10408811;28;20384;-79
2021/05/08 02:43:12;;;;;;;17.23;7.43;;;;;;;10.65;100.00;94576.13;10390325;28;20512;-78
2021/05/08 02:48:12;;;;;;;9.07;6.15;;;;;;;10.63;100.00;94593.59;10389994;28;20025;-79
2021/05/08 02:53:12;;;;;;;10.63;6.70;;;;;;;10.44;100.00;94594.22;10408148;28;20033;-79
2021/05/08 02:58:13;;;;;;;8.20;5.57;;;;;;;10.16;100.00;94612.56;10407750;28;20783;-80
2021/05/08 03:03:13;;;;;;;8.00;5.00;;;;;;;9.91;100.00;94600.00;10407681;28;20272;-79
2021/05/08 03:08:15;;;;;;;13.17;6.13;;;;;;;9.75;100.00;94601.91;10407370;28;20282;-80
2021/05/08 03:13:15;;;;;;;13.95;5.75;;;;;;;9.63;100.00;94604.06;10407936;28;20292;-79
2021/05/08 03:18:15;;;;;;;7.10;5.20;;;;;;;9.48;100.00;94619.09;10407569;28;20032;-79
2021/05/08 03:23:16;;;;;;;5.37;4.10;;;;;;;9.45;100.00;94626.91;10389780;28;20021;-79
2021/05/08 03:28:16;;;;;;;9.60;5.05;;;;;;;9.28;100.00;94638.69;10392810;28;20312;-79
2021/05/08 03:33:16;;;;;;;6.27;3.93;;;;;;;9.49;100.00;94663.63;10369518;28;20025;-79
2021/05/08 03:38:17;;;;;;;5.30;3.40;;;;;;;9.49;100.00;94676.22;10373990;28;20801;-79
2021/05/08 03:43:17;;;;;;;4.17;3.33;;;;;;;9.70;100.00;94680.53;10374158;28;20045;-79
2021/05/08 03:48:18;;;;;;;5.88;3.05;;;;;;;9.92;100.00;94698.22;10373696;28;20770;-79
2021/05/08 03:53:20;;;;;;;8.33;3.90;;;;;;;10.14;100.00;94703.31;10373798;28;20109;-79
2021/05/08 03:58:32;;;;;;;5.35;3.20;;;;;;;10.15;100.00;94728.31;10373792;28;20034;-79
2021/05/08 04:03:33;;;;;;;8.15;4.20;;;;;;;10.33;100.00;94735.78;10372385;28;20024;-79
2021/05/08 04:08:33;;;;;;;5.63;4.63;;;;;;;10.28;100.00;94738.47;10372510;28;20054;-79
2021/05/08 04:13:33;;;;;;;10.10;5.10;;;;;;;10.09;100.00;94755.16;10372846;28;20537;-79
2021/05/08 04:18:34;;;;;;;7.10;4.87;;;;;;;10.37;100.00;94760.28;10371881;28;20029;-80
2021/05/08 04:23:34;;;;;;;9.77;5.90;;;;;;;9.89;100.00;94753.28;10371877;28;20030;-78
2021/05/08 04:28:34;;;;;;;6.93;4.97;;;;;;;9.61;100.00;94765.31;10389158;28;20763;-79
2021/05/08 04:33:35;;;;;;;8.63;5.27;;;;;;;10.08;100.00;94776.91;10412074;28;20284;-79
2021/05/08 04:38:38;;;;;;;11.13;5.00;;;;;;;9.67;100.00;94787.59;10394374;28;20044;-79
2021/05/08 04:43:38;;;;;;;6.75;5.32;;;;;;;9.46;100.00;94802.84;10412056;28;20659;-78
2021/05/08 04:48:39;;;;;;;5.72;4.70;;;;;;;9.46;100.00;94808.22;10411987;28;20022;-78
2021/05/08 04:53:39;;;;;;;6.23;4.60;;;;;;;9.64;100.00;94812.28;10393868;28;20034;-78
2021/05/08 04:58:39;;;;;;;5.43;4.40;;;;;;;9.81;100.00;94831.66;10411924;28;20029;-78
2021/05/08 05:03:40;;;;;;;5.57;3.70;;;;;;;10.06;100.00;94848.88;10410920;28;20280;-78
2021/05/08 05:08:40;;;;;;;5.72;4.18;;;;;;;10.24;100.00;94853.72;10410628;28;20620;-78
2021/05/08 05:13:41;;;;;;;8.03;3.90;;;;;;;10.34;100.00;94844.91;10410930;28;20029;-79
2021/05/08 05:18:41;;;;;;;15.40;4.13;;;;;;;10.96;100.00;94852.91;10410764;28;20029;-79
2021/05/08 05:23:42;;;;;;;4.40;3.80;;;;;;;11.52;100.00;94856.50;10409921;28;20031;-79
2021/05/08 05:28:42;;;;;;;6.83;2.77;;;;;;;11.63;100.00;94848.06;10391628;28;20036;-79
2021/05/08 05:33:42;;;;;;;3.40;2.37;;;;;;;11.10;100.00;94874.66;10368523;28;20295;-79
2021/05/08 05:38:43;;;;;;;7.67;3.57;;;;;;;11.20;100.00;94871.13;10368465;28;20300;-79
2021/05/08 05:43:43;;;;;;;4.27;2.43;;;;;;;11.52;100.00;94878.03;10368138;28;20037;-79
2021/05/08 05:48:43;;;;;;;2.60;2.40;;;;;;;11.62;100.00;94888.72;10368950;28;20026;-79
2021/05/08 05:53:44;;;;;;;2.73;1.97;;;;;;;11.53;100.00;94904.66;10368652;28;20060;-79
2021/05/08 05:58:44;;;;;;;2.37;1.80;;;;;;;12.08;100.00;94902.03;10349917;28;20338;-78
2021/05/08 06:03:45;;;;;;;2.33;2.17;;;;;;;10.99;100.00;94902.66;10368303;28;20018;-78
2021/05/08 06:08:45;;;;;;;2.13;2.03;;;;;;;11.52;100.00;94913.81;10367979;28;20021;-79
2021/05/08 06:13:46;;;;;;;3.42;2.35;;;;;;;11.95;100.00;94916.09;10349824;28;20037;-79
2021/05/08 06:18:46;;;;;;;2.87;2.10;;;;;;;12.88;100.00;94921.69;10350333;28;20034;-79
2021/05/08 06:23:46;;;;;;;2.23;1.90;;;;;;;12.52;100.00;94927.34;10367240;28;20283;-79
2021/05/08 06:28:47;;;;;;;8.27;2.57;;;;;;;12.25;100.00;94943.94;10386202;28;20280;-80
2021/05/08 06:33:47;;;;;;;2.60;2.40;;;;;;;12.05;100.00;94937.56;10408537;28;20029;-80
2021/05/08 06:38:48;;;;;;;7.40;1.98;;;;;;;12.12;100.00;94924.59;10390392;28;20029;-79
2021/05/08 06:43:48;;;;;;;2.13;1.95;;;;;;;13.35;100.00;94908.56;10407737;28;20049;-79
2021/05/08 06:48:49;;;;;;;13.03;1.87;;;;;;;14.39;94.63;94916.22;10408373;28;20026;-79
2021/05/08 06:53:49;;;;;;;2.22;2.03;;;;;;;13.91;95.23;94914.41;10408049;28;20392;-79
2021/05/08 06:58:50;;;;;;;6.60;2.00;;;;;;;12.68;100.00;94919.13;10407736;28;20038;-79
2021/05/08 07:03:51;;;;;;;2.78;2.42;;;;;;;13.18;100.00;94919.78;10407929;28;20032;-79
2021/05/08 07:08:52;;;;;;;6.37;2.40;;;;;;;13.98;97.63;94918.38;10412900;28;20515;-79
2021/05/08 07:13:52;;;;;;;2.90;2.65;;;;;;;12.68;100.00;94944.19;10415354;28;20061;-79
2021/05/08 07:18:52;;;;;;;4.65;2.58;;;;;;;13.28;99.26;94940.47;10415619;28;20042;-79
2021/05/08 07:23:53;;;;;;;4.07;3.10;;;;;;;13.38;100.00;94953.09;10415429;28;20021;-79
2021/05/08 07:28:53;;;;;;;6.63;3.53;;;;;;;13.56;99.12;94955.03;10395153;28;20038;-79
2021/05/08 07:33:54;;;;;;;7.28;3.60;;;;;;;12.17;100.00;94960.69;10374094;28;20034;-79
2021/05/08 07:38:56;;;;;;;6.80;4.53;;;;;;;12.58;100.00;94963.16;10355912;28;20457;-79
2021/05/08 07:43:56;;;;;;;9.60;6.53;;;;;;;12.45;100.00;94959.19;10373384;28;20042;-79
2021/05/08 07:48:57;;;;;;;6.27;4.97;;;;;;;12.82;100.00;94958.69;10355792;28;20025;-79
2021/05/08 07:53:57;;;;;;;5.60;4.27;;;;;;;13.16;100.00;94957.84;10373679;28;20029;-79
2021/05/08 07:58:57;;;;;;;7.17;4.80;;;;;;;13.33;98.87;94957.41;10372755;28;20366;-79
2021/05/08 08:03:58;;;;;;;7.43;3.83;;;;;;;13.15;100.00;94968.94;10372979;28;20448;-79
2021/05/08 08:08:58;;;;;;;5.50;3.90;;;;;;;13.37;100.00;94973.88;10354973;28;20053;-79
2021/05/08 08:13:58;;;;;;;6.60;3.10;;;;;;;13.90;88.37;94967.66;10372704;28;20481;-79
2021/05/08 08:19:00;;;;;;;4.20;3.80;;;;;;;13.68;90.37;94962.78;10371573;28;20060;-79
2021/05/08 08:24:01;;;;;;;9.93;4.97;;;;;;;13.87;97.11;94975.53;10354502;28;20528;-79
2021/05/08 08:29:03;;;;;;;5.25;3.85;;;;;;;14.17;90.73;94980.56;10392608;28;20036;-79
2021/05/08 08:34:03;;;;;;;11.30;4.07;;;;;;;14.95;82.96;94966.78;10411968;28;20048;-79
2021/05/08 08:39:05;;;;;;;4.40;4.00;;;;;;;14.53;85.20;94966.56;10412585;28;20390;-80
2021/05/08 08:44:09;;;;;;;8.07;4.63;;;;;;;14.82;82.22;94975.66;10411681;28;20068;-79
2021/05/08 08:49:12;;;;;;;5.32;4.18;;;;;;;14.46;84.92;94971.53;10411818;28;20436;-79
2021/05/08 08:54:13;;;;;;;5.30;3.58;;;;;;;14.14;83.96;94961.44;10394217;28;20037;-80
2021/05/08 08:59:27;;;;;;;4.72;3.83;;;;;;;14.86;79.95;94958.53;10411285;28;20037;-80
2021/05/08 09:04:27;;;;;;;8.45;4.22;;;;;;;15.54;76.39;94948.19;10393717;28;20037;-80
2021/05/08 09:09:28;;;;;;;4.40;4.00;;;;;;;16.01;70.43;94964.38;10393076;28;20456;-80
2021/05/08 09:14:34;;;;;;;8.15;4.35;;;;;;;18.10;62.08;94952.66;10410769;28;20025;-79
2021/05/08 09:20:06;;;;;;;3.40;3.10;;;;;;;20.53;49.97;94938.16;10412243;28;20033;-78
2021/05/08 09:25:11;;;;;;;4.00;3.47;;;;;;;20.25;52.79;94930.47;10406644;28;20826;-78
2021/05/08 09:30:18;;;;;;;4.72;3.22;;;;;;;23.15;42.54;94919.84;10379851;28;20037;-79
2021/05/08 09:35:21;;;;;;;2.95;2.63;;;;;;;20.73;45.03;94925.66;10368946;28;20025;-79
2021/05/08 09:40:26;;;;;;;3.60;3.30;;;;;;;21.58;44.10;94925.56;10369567;28;20030;-80
2021/05/08 09:45:27;;;;;;;8.93;4.15;;;;;;;18.87;49.80;94923.16;10369032;28;20574;-80
2021/05/08 09:50:27;;;;;;;4.80;4.15;;;;;;;19.53;48.21;94919.34;10369181;28;20021;-79
2021/05/08 09:55:33;;;;;;;5.45;3.42;;;;;;;19.25;48.98;94918.94;10369382;28;20030;-80
2021/05/08 10:00:37;;;;;;;3.63;3.28;;;;;;;18.49;49.70;94923.78;10368534;28;20038;-79
2021/05/08 10:05:39;;;;;;;4.07;3.40;;;;;;;19.61;49.41;94937.59;10368045;28;20088;-79
2021/05/08 10:10:39;;;;;;;3.10;2.70;;;;;;;18.61;48.81;94936.75;10367553;28;20057;-79
2021/05/08 10:15:40;;;;;;;5.93;2.90;;;;;;;19.03;49.33;94944.47;10368276;28;20061;-80
2021/05/08 10:20:42;;;;;;;5.40;2.65;;;;;;;20.75;46.89;94945.25;10367837;28;20026;-80
2021/05/08 10:25:44;;;;;;;2.47;2.28;;;;;;;20.87;43.85;94922.66;10350076;28;20084;-80
2021/05/08 10:30:45;;;;;;;4.63;2.60;;;;;;;19.05;48.42;94923.94;10402998;28;20029;-80
2021/05/08 10:35:46;;;;;;;3.65;2.28;;;;;;;18.62;46.88;94933.69;10408361;28;20025;-80
2021/05/08 10:40:51;;;;;;;3.40;2.50;;;;;;;18.70;47.26;94920.41;10407571;28;20484;-80
2021/05/08 10:45:55;;;;;;;15.27;3.95;;;;;;;18.17;48.31;94916.81;10411901;28;20129;-80
2021/05/08 10:50:58;;;;;;;2.47;2.28;;;;;;;15.99;53.58;94928.66;10389621;28;20443;-80
2021/05/08 10:55:59;;;;;;;4.90;2.17;;;;;;;17.05;52.05;94919.50;10390218;28;20094;-80
2021/05/08 11:01:11;;;;;;;4.22;2.20;;;;;;;18.12;48.67;94917.00;10408369;28;20040;-80
2021/05/08 11:06:11;;;;;;;1.88;1.50;;;;;;;19.09;45.26;94926.84;10407353;28;20030;-80
2021/05/08 11:11:14;;;;;;;7.85;3.17;;;;;;;18.84;45.10;94925.69;10407261;28;20030;-80
2021/05/08 11:16:19;;;;;;;4.50;1.48;;;;;;;19.04;43.24;94921.56;10408025;28;20503;-80
2021/05/08 11:21:19;;;;;;;15.25;2.80;;;;;;;18.67;46.38;94923.78;10420894;28;20026;-79
2021/05/08 11:31:24;;;;;;;7.28;3.17;;;;;;;18.26;47.13;94912.22;10366749;28;20204;-79
2021/05/08 11:36:24;;;;;;;2.53;2.20;;;;;;;18.12;49.28;94925.94;10365973;28;20376;-79
2021/05/08 11:41:25;;;;;;;5.47;2.53;;;;;;;17.92;47.35;94919.97;10366236;28;20022;-79
2021/05/08 11:46:28;;;;;;;4.25;2.80;;;;;;;17.31;45.98;94922.41;10366072;28;20079;-80
2021/05/08 11:51:28;;;;;;;2.53;2.33;;;;;;;16.91;47.96;94930.44;10365618;28;20026;-79
2021/05/08 11:56:30;;;;;;;2.78;2.53;;;;;;;16.96;50.17;94933.03;10371974;28;20041;-80
2021/05/08 12:01:31;;;;;;;10.35;2.70;;;;;;;16.95;50.45;94919.78;10373400;28;20026;-79
2021/05/08 12:06:32;;;;;;;9.48;3.13;;;;;;;17.33;50.60;94913.94;10373039;28;20033;-80
2021/05/08 12:11:33;;;;;;;6.15;2.55;;;;;;;17.03;51.02;94917.13;10372677;28;20081;-80
2021/05/08 12:16:33;;;;;;;3.03;2.57;;;;;;;16.83;55.50;94912.16;10372613;28;20152;-80
2021/05/08 12:21:34;;;;;;;5.32;2.75;;;;;;;16.89;54.68;94905.53;10372122;28;20485;-79
2021/05/08 12:26:34;;;;;;;3.40;3.10;;;;;;;16.95;52.29;94904.28;10373065;28;20034;-79
2021/05/08 12:31:35;;;;;;;3.93;2.63;;;;;;;17.01;52.00;94904.94;10412937;28;20469;-80
2021/05/08 12:36:36;;;;;;;5.25;2.65;;;;;;;17.59;50.16;94900.47;10413010;28;20451;-80
2021/05/08 12:41:36;;;;;;;21.38;11.13;;;;;;;17.68;47.25;94892.34;10394588;28;20024;-80
2021/05/08 12:46:55;;;;;;;7.77;2.20;;;;;;;17.60;51.12;94889.28;10412253;28;20045;-79
2021/05/08 12:51:55;;;;;;;4.07;1.92;;;;;;;17.35;48.22;94877.19;10412622;28;20041;-79
2021/05/08 12:57:09;;;;;;;2.58;2.08;;;;;;;17.00;49.03;94878.94;10411347;28;20412;-80
2021/05/08 13:02:14;;;;;;;2.42;2.10;;;;;;;16.65;51.93;94884.09;10411538;28;20017;-80
2021/05/08 13:07:23;;;;;;;2.28;2.08;;;;;;;16.46;51.83;94867.97;10411418;28;20575;-80
2021/05/08 13:12:23;;;;;;;10.25;2.30;;;;;;;15.82;54.28;94858.00;10411152;28;20176;-80
2021/05/08 13:17:25;;;;;;;4.10;2.20;;;;;;;16.25;55.76;94867.66;10411010;28;20033;-80
2021/05/08 13:22:25;;;;;;;13.93;2.50;;;;;;;16.38;55.41;94869.50;10393153;28;20136;-80
2021/05/08 13:27:26;;;;;;;7.70;2.40;;;;;;;16.48;52.28;94868.47;10384992;28;20455;-80
2021/05/08 13:32:26;;;;;;;2.25;2.05;;;;;;;16.44;51.83;94865.59;10369628;28;20029;-79
2021/05/08 13:37:27;;;;;;;2.00;1.73;;;;;;;16.33;51.55;94881.28;10369309;28;20049;-80
2021/05/08 13:42:27;;;;;;;3.17;1.70;;;;;;;16.03;52.40;94864.59;10351552;28;20056;-79
2021/05/08 13:47:28;;;;;;;3.17;1.73;;;;;;;16.01;53.68;94876.84;10369129;28;20264;-80
2021/05/08 13:52:28;;;;;;;2.20;2.00;;;;;;;16.05;50.74;94875.13;10369028;28;20293;-79
2021/05/08 13:57:29;;;;;;;2.72;1.92;;;;;;;16.16;51.06;94876.50;10369147;28;20732;-80
2021/05/08 14:02:29;;;;;;;1.70;1.60;;;;;;;16.14;51.30;94884.13;10368645;28;20549;-80
2021/05/08 14:07:29;;;;;;;4.23;1.80;;;;;;;15.56;51.25;94888.28;10368507;28;20414;-80
2021/05/08 14:12:30;;;;;;;4.70;1.40;;;;;;;15.59;49.54;94886.91;10368296;28;20117;-80
2021/05/08 14:17:30;;;;;;;1.50;1.40;;;;;;;15.57;49.29;94898.00;10349569;28;20021;-80
2021/05/08 14:22:31;;;;;;;1.60;1.40;;;;;;;15.63;48.14;94879.75;10367858;28;20306;-80
2021/05/08 14:27:31;;;;;;;2.20;1.35;;;;;;;15.59;49.28;94892.31;10376594;28;20032;-79
2021/05/08 14:32:32;;;;;;;2.15;1.60;;;;;;;15.71;49.77;94885.28;10407927;28;20037;-79
2021/05/08 14:37:32;;;;;;;10.18;1.65;;;;;;;15.63;48.54;94883.28;10390475;28;20037;-79
2021/05/08 14:42:36;;;;;;;4.83;1.63;;;;;;;15.71;45.84;94900.72;10408336;28;20110;-79
2021/05/08 14:47:38;;;;;;;8.05;2.35;;;;;;;15.64;47.75;94893.00;10420906;28;20286;-79
2021/05/08 14:52:39;;;;;;;3.88;1.20;;;;;;;15.50;45.52;94908.44;10403049;28;20121;-84
2021/05/08 14:58:01;;;;;;;5.20;1.27;;;;;;;15.41;47.49;94897.50;10435519;28;20506;-84
2021/05/08 15:03:02;;;;;;;2.60;1.20;;;;;;;14.93;48.33;94900.50;10410383;28;20029;-81
2021/05/08 15:08:02;;;;;;;3.93;1.20;;;;;;;15.02;49.25;94904.16;10408842;28;20021;-80
2021/05/08 15:13:03;;;;;;;1.60;1.50;;;;;;;14.84;49.65;94905.81;10408312;28;20288;-79
2021/05/08 15:18:03;;;;;;;4.23;1.47;;;;;;;14.63;51.00;94913.44;10436929;28;20110;-80
2021/05/08 15:23:04;;;;;;;1.85;1.30;;;;;;;14.65;50.93;94903.94;10449483;28;20028;-80
2021/05/08 15:28:04;;;;;;;3.72;0.95;;;;;;;14.70;51.05;94911.16;10438749;28;20251;-80
2021/05/08 15:33:05;;;;;;;3.57;1.60;;;;;;;14.64;51.59;94918.56;10415071;28;20030;-80
2021/05/08 15:38:05;;;;;;;3.17;1.27;;;;;;;14.59;50.55;94912.41;10397253;28;20025;-80
2021/05/08 15:43:05;;;;;;;4.43;1.67;;;;;;;14.63;49.95;94924.28;10414862;28;20310;-80
2021/05/08 15:48:06;;;;;;;1.30;1.00;;;;;;;14.67;50.12;94919.88;10415127;28;20041;-80
2021/05/08 15:53:07;;;;;;;2.58;1.33;;;;;;;14.55;50.23;94927.59;10415074;28;20099;-80
2021/05/08 15:58:07;;;;;;;2.47;1.58;;;;;;;14.66;50.38;94932.59;10414312;28;20079;-80
2021/05/08 16:03:08;;;;;;;1.67;1.20;;;;;;;14.63;47.94;94933.19;10414323;28;20018;-79
2021/05/08 16:08:08;;;;;;;7.00;1.27;;;;;;;14.57;49.32;94928.09;10413866;28;20465;-80
2021/05/08 16:13:09;;;;;;;7.63;1.13;;;;;;;14.50;48.06;94929.28;10413625;28;20087;-80
2021/05/08 16:18:10;;;;;;;1.27;0.93;;;;;;;14.46;47.12;94938.28;10413731;28;20056;-80
2021/05/08 16:23:10;;;;;;;4.72;1.10;;;;;;;14.33;46.69;94947.91;10412840;28;20032;-79
2021/05/08 16:28:11;;;;;;;3.73;1.13;;;;;;;14.15;46.48;94952.22;10398598;28;20064;-80
2021/05/08 16:33:11;;;;;;;1.98;1.10;;;;;;;13.74;48.37;94950.00;10371956;28;20292;-79
2021/05/08 16:38:11;;;;;;;3.07;1.50;;;;;;;13.58;48.17;94962.88;10371133;28;20038;-79
2021/05/08 16:43:12;;;;;;;8.17;1.47;;;;;;;13.48;50.02;94971.91;10371008;28;20487;-79
2021/05/08 16:48:12;;;;;;;7.07;1.40;;;;;;;13.41;49.85;94983.03;10371861;28;20338;-79
2021/05/08 16:53:13;;;;;;;4.70;1.60;;;;;;;13.23;49.53;94991.78;10329991;28;20042;-78
2021/05/08 16:58:13;;;;;;;1.77;1.20;;;;;;;13.14;50.43;94992.41;10336130;28;20029;-79
2021/05/08 17:03:14;;;;;;;48.28;15.88;;;;;;;13.13;51.10;94998.91;10381163;28;20284;-79
2021/05/08 17:08:14;;;;;;;4.50;1.60;;;;;;;13.08;50.98;94998.94;10366531;28;20493;-78
2021/05/08 17:13:14;;;;;;;3.63;1.60;;;;;;;12.78;49.85;95010.75;10367111;28;20030;-78
2021/05/08 17:18:16;;;;;;;2.40;1.50;;;;;;;12.77;49.73;95026.13;10367875;28;20048;-78
2021/05/08 17:23:16;;;;;;;2.45;1.50;;;;;;;12.87;49.63;95024.47;10345745;28;20029;-79
2021/05/08 17:28:17;;;;;;;4.20;1.50;;;;;;;12.80;49.98;95036.34;10355305;28;20022;-79
2021/05/08 17:33:17;;;;;;;4.27;2.37;;;;;;;12.88;51.25;95042.22;10367813;28;20338;-79
2021/05/08 17:38:17;;;;;;;7.77;2.30;;;;;;;12.86;50.99;95039.81;10367529;28;20272;-82
2021/05/08 17:43:18;;;;;;;3.38;2.20;;;;;;;12.65;51.31;95055.31;10375699;28;20113;-78
2021/05/08 17:48:18;;;;;;;4.80;2.10;;;;;;;12.68;52.10;95062.06;10386591;28;20512;-77
2021/05/08 17:53:18;;;;;;;3.20;1.80;;;;;;;12.60;51.63;95068.81;10387291;28;20076;-78
2021/05/08 17:58:19;;;;;;;10.13;2.80;;;;;;;12.48;52.19;95083.44;10383867;28;20029;-78
2021/05/08 18:03:19;;;;;;;5.82;1.95;;;;;;;12.26;52.11;95083.00;10386925;28;20037;-78
2021/05/08 18:08:20;;;;;;;2.43;1.40;;;;;;;12.08;52.15;95095.16;10385162;28;20030;-80
2021/05/08 18:13:20;;;;;;;10.38;5.00;;;;;;;12.16;53.66;95105.38;10384480;28;20017;-79
2021/05/08 18:18:23;;;;;;;2.42;1.70;;;;;;;12.01;52.62;95114.31;10397974;28;20374;-78
2021/05/08 18:23:24;;;;;;;6.05;1.85;;;;;;;11.95;51.45;95126.97;10387039;28;20393;-78
2021/05/08 18:28:24;;;;;;;2.72;1.75;;;;;;;11.72;51.81;95143.66;10365608;28;20029;-78
2021/05/08 18:33:25;;;;;;;4.60;2.03;;;;;;;11.55;52.23;95147.44;10389156;28;20029;-78
2021/05/08 18:38:25;;;;;;;3.70;1.85;;;;;;;11.69;54.58;95157.69;10384024;28;20052;-78
2021/05/08 18:43:28;;;;;;;3.05;2.15;;;;;;;11.40;54.71;95168.94;10385810;28;20033;-78
2021/05/08 18:48:28;;;;;;;2.28;1.75;;;;;;;11.36;54.05;95182.16;10386620;28;20055;-77
2021/05/08 18:53:29;;;;;;;2.50;1.87;;;;;;;11.48;54.41;95186.47;10384935;28;20079;-77
2021/05/08 18:58:29;;;;;;;4.73;2.13;;;;;;;11.23;54.23;95193.41;10367532;28;20036;-78
2021/05/08 19:03:30;;;;;;;5.20;1.85;;;;;;;11.30;53.99;95204.72;10399378;28;20321;-79
2021/05/08 19:08:31;;;;;;;3.67;2.10;;;;;;;11.01;55.06;95213.28;10436575;28;20028;-77
2021/05/08 19:13:32;;;;;;;1.95;1.67;;;;;;;10.95;56.55;95222.38;10399540;28;20972;-77
2021/05/08 19:18:33;;;;;;;2.88;2.00;;;;;;;10.84;57.05;95226.94;10374633;28;20040;-78
2021/05/08 19:23:33;;;;;;;3.97;2.10;;;;;;;10.63;57.13;95231.38;10374948;28;20021;-77
2021/05/08 19:28:33;;;;;;;2.90;1.90;;;;;;;10.45;58.47;95242.56;10391088;28;20026;-78
2021/05/08 19:33:34;;;;;;;4.68;1.77;;;;;;;10.53;59.41;95240.19;10409382;28;20346;-80
2021/05/08 19:38:34;;;;;;;6.43;2.37;;;;;;;10.33;60.18;95245.44;10416955;28;20025;-79
2021/05/08 19:43:36;;;;;;;3.08;2.10;;;;;;;10.14;61.33;95247.72;10427364;28;20500;-79
2021/05/08 19:48:36;;;;;;;5.50;2.47;;;;;;;10.15;60.85;95250.13;10446732;28;20029;-78
2021/05/08 19:53:37;;;;;;;3.10;1.67;;;;;;;10.05;62.79;95250.06;10456785;28;20090;-79
2021/05/08 19:58:37;;;;;;;6.10;2.30;;;;;;;9.99;62.68;95256.44;10455530;28;20036;-78
2021/05/08 20:03:37;;;;;;;2.97;2.30;;;;;;;9.86;63.43;95271.13;10454831;28;20025;-79
2021/05/08 20:08:38;;;;;;;8.30;2.05;;;;;;;9.86;62.88;95263.06;10455606;28;20021;-79
2021/05/08 20:13:40;;;;;;;6.17;1.90;;;;;;;9.79;64.46;95263.25;10453360;28;20492;-78
2021/05/08 20:18:40;;;;;;;2.53;1.80;;;;;;;9.86;64.79;95273.78;10453062;28;20786;-79
2021/05/08 20:23:40;;;;;;;4.33;2.10;;;;;;;9.74;63.06;95274.78;10454414;28;20017;-79
2021/05/08 20:28:41;;;;;;;2.57;1.80;;;;;;;9.80;62.69;95269.47;10408195;28;20053;-79
2021/05/08 20:33:41;;;;;;;5.45;2.03;;;;;;;9.76;64.69;95277.19;10415663;28;20375;-79
2021/05/08 20:38:42;;;;;;;3.10;1.95;;;;;;;9.92;64.96;95278.13;10403218;28;20083;-79
2021/05/08 20:43:42;;;;;;;2.42;1.98;;;;;;;9.93;64.99;95279.75;10370440;28;20120;-79
2021/05/08 20:48:42;;;;;;;3.57;2.20;;;;;;;9.82;66.70;95278.06;10372033;28;20087;-79
2021/05/08 20:53:43;;;;;;;4.00;2.28;;;;;;;9.70;65.95;95270.97;10390676;28;20036;-79
2021/05/08 20:58:46;;;;;;;4.00;2.00;;;;;;;9.49;66.83;95282.56;10435040;28;20041;-80
2021/05/08 21:03:47;;;;;;;4.00;2.03;;;;;;;9.27;68.73;95287.97;10453863;28;20553;-79
2021/05/08 21:08:47;;;;;;;4.30;2.20;;;;;;;9.14;69.49;95289.97;10453100;28;20183;-79
2021/05/08 21:13:48;;;;;;;4.70;2.40;;;;;;;9.21;69.68;95289.78;10428059;28;20036;-79
2021/05/08 21:18:48;;;;;;;3.13;2.30;;;;;;;9.10;69.41;95298.75;10411291;28;20029;-79
2021/05/08 21:23:48;;;;;;;2.50;1.80;;;;;;;9.07;68.26;95297.41;10409903;28;20022;-79
2021/05/08 21:28:49;;;;;;;2.88;2.25;;;;;;;9.06;69.59;95309.97;10410532;28;20029;-79
2021/05/08 21:33:49;;;;;;;2.47;2.13;;;;;;;9.17;70.89;95307.44;10411558;28;20025;-79
2021/05/08 21:38:51;;;;;;;3.70;2.50;;;;;;;9.08;67.07;95304.38;10412795;28;20052;-78
2021/05/08 21:43:51;;;;;;;2.40;2.20;;;;;;;9.12;65.92;95302.00;10420948;28;20494;-79
2021/05/08 21:48:51;;;;;;;3.80;2.30;;;;;;;9.02;69.64;95310.72;10432362;28;20033;-79
2021/05/08 21:53:53;;;;;;;2.47;2.10;;;;;;;8.94;69.61;95311.97;10415841;28;20056;-78
2021/05/08 21:58:54;;;;;;;4.63;2.35;;;;;;;9.10;71.32;95323.72;10451336;28;20419;-79
2021/05/08 22:03:54;;;;;;;3.50;2.10;;;;;;;9.03;69.48;95318.53;10451378;28;20025;-78
2021/05/08 22:08:55;;;;;;;5.43;2.25;;;;;;;8.91;72.94;95322.38;10450548;28;20116;-78
2021/05/08 22:13:57;;;;;;;4.60;2.08;;;;;;;8.81;72.28;95317.69;10392060;28;20030;-79
2021/05/08 22:18:58;;;;;;;2.85;2.20;;;;;;;8.87;69.59;95317.53;10394301;28;20032;-79
2021/05/08 22:23:58;;;;;;;2.83;2.40;;;;;;;8.79;72.30;95320.63;10367862;28;20026;-79
2021/05/08 22:28:59;;;;;;;2.75;2.25;;;;;;;8.73;71.90;95316.25;10400976;28;20499;-79
2021/05/08 22:33:59;;;;;;;3.00;2.58;;;;;;;8.66;72.16;95316.41;10424907;28;20037;-78
2021/05/08 22:38:59;;;;;;;2.37;2.17;;;;;;;8.65;71.17;95311.31;10410263;28;20075;-78
2021/05/08 22:44:00;;;;;;;4.53;2.07;;;;;;;8.54;74.19;95319.19;10408424;28;20307;-78
2021/05/08 22:49:00;;;;;;;7.47;2.40;;;;;;;8.53;72.05;95312.22;10408100;28;20045;-78
2021/05/08 22:54:01;;;;;;;8.70;2.50;;;;;;;8.33;77.19;95326.09;10409207;28;20617;-78
2021/05/08 22:59:01;;;;;;;5.80;3.22;;;;;;;8.31;78.61;95328.19;10390744;28;20288;-78
2021/05/08 23:04:02;;;;;;;4.13;2.38;;;;;;;8.41;77.59;95335.56;10407955;28;20396;-78
2021/05/08 23:09:03;;;;;;;7.10;4.28;;;;;;;8.20;81.01;95329.91;10390893;28;20028;-78
2021/05/08 23:14:03;;;;;;;5.05;2.22;;;;;;;8.14;81.48;95335.41;10394412;28;20037;-78
2021/05/08 23:19:04;;;;;;;7.37;3.10;;;;;;;8.09;82.81;95328.09;10366565;28;20026;-79